Time;durP1;ratioP1;P1;durP2;ratioP2;P2;SDS_P1;SDS_P2;PMS_P1;PMS_P2;Temp;Humidity;BMP_temperature;BMP_pressure;BME280_temperature;BME280_humidity;BME280_pressure;Samples;Min_cycle;Max_cycle;Signal;HPM_P1;HPM_P2
2023/03/26 00:00:44;;;;;;;13.38;3.67;;;;;;;9.33;83.74;99009.41;5032238;28;20506;-83
2023/03/26 00:03:11;;;;;;;7.65;2.70;;;;;;;9.33;83.35;99011.31;5051673;28;20036;-81
2023/03/26 00:05:39;;;;;;;12.07;2.38;;;;;;;9.42;83.78;99017.81;5049904;28;20040;-82
2023/03/26 00:08:07;;;;;;;12.38;4.97;;;;;;;9.20;84.05;99016.22;5050918;28;20063;-82
2023/03/26 00:10:33;;;;;;;13.90;4.25;;;;;;;9.14;84.65;99022.75;5057994;28;20131;-82
2023/03/26 00:12:59;;;;;;;11.57;2.78;;;;;;;9.28;84.02;99014.00;5051497;28;20045;-82
2023/03/26 00:15:24;;;;;;;12.70;2.73;;;;;;;9.46;83.81;99018.88;5051065;28;20037;-83
2023/03/26 00:17:49;;;;;;;13.45;2.90;;;;;;;9.49;82.78;99013.97;5047451;28;20967;-82
2023/03/26 00:20:14;;;;;;;16.57;2.77;;;;;;;9.61;83.10;99011.78;5047206;28;20768;-82
2023/03/26 00:22:40;;;;;;;7.40;2.08;;;;;;;9.65;82.27;99012.03;5048473;28;20262;-82
2023/03/26 00:25:06;;;;;;;7.55;3.40;;;;;;;9.56;82.63;99011.78;5047940;28;20036;-83
2023/03/26 00:27:32;;;;;;;9.35;3.03;;;;;;;9.72;82.31;99011.75;5047428;28;20037;-83
2023/03/26 00:29:59;;;;;;;12.15;3.35;;;;;;;9.33;83.17;99005.88;5029448;28;20486;-82
2023/03/26 00:32:26;;;;;;;11.88;3.38;;;;;;;9.51;83.17;99009.06;5047933;28;20112;-82
2023/03/26 00:34:54;;;;;;;12.77;2.88;;;;;;;9.65;82.47;99003.88;5048447;28;20067;-83
2023/03/26 00:37:25;;;;;;;11.57;3.80;;;;;;;9.57;82.74;99005.25;5047296;28;20029;-83
2023/03/26 00:39:53;;;;;;;11.95;3.85;;;;;;;9.58;82.47;98990.53;5045962;28;20049;-82
2023/03/26 00:42:19;;;;;;;13.55;3.00;;;;;;;9.51;82.62;98996.28;5047742;28;20036;-82
2023/03/26 00:44:45;;;;;;;12.52;2.75;;;;;;;9.53;82.05;98999.56;5047553;28;20041;-82
2023/03/26 00:47:10;;;;;;;26.70;4.97;;;;;;;9.16;83.87;98996.09;5048288;28;20037;-82
2023/03/26 00:49:35;;;;;;;13.97;3.87;;;;;;;9.49;82.99;98984.88;5047114;28;20116;-83
2023/03/26 00:52:01;;;;;;;28.73;4.50;;;;;;;9.52;82.02;98978.06;5048017;28;20254;-82
2023/03/26 00:54:27;;;;;;;17.80;3.38;;;;;;;9.49;83.15;98986.78;5047302;28;20642;-82
2023/03/26 00:56:54;;;;;;;9.60;2.65;;;;;;;9.52;82.10;98978.06;5046625;28;20039;-82
2023/03/26 00:59:21;;;;;;;13.35;4.50;;;;;;;9.45;82.33;98973.72;5045436;28;20084;-82
2023/03/26 01:01:46;;;;;;;20.35;4.90;;;;;;;9.60;82.13;98979.41;5039574;28;20073;-82
2023/03/26 01:04:29;;;;;;;8.68;2.90;;;;;;;9.52;82.11;98975.34;5036726;28;20069;-82
2023/03/26 01:06:57;;;;;;;18.30;4.32;;;;;;;9.51;81.87;98973.69;5036483;28;20053;-82
2023/03/26 01:09:31;;;;;;;12.30;4.63;;;;;;;9.53;82.59;98971.53;5035345;28;20513;-82
2023/03/26 01:11:58;;;;;;;11.52;3.35;;;;;;;9.68;81.46;98966.00;5037363;28;20029;-82
2023/03/26 01:14:25;;;;;;;15.45;5.70;;;;;;;9.75;81.04;98957.56;5037423;28;20041;-82
2023/03/26 01:16:59;;;;;;;20.00;4.72;;;;;;;9.79;80.58;98952.38;5036984;28;20486;-82
2023/03/26 01:19:47;;;;;;;8.07;2.60;;;;;;;9.42;81.22;98952.50;5036455;28;20088;-82
2023/03/26 01:22:19;;;;;;;25.95;4.82;;;;;;;9.22;81.85;98956.91;5035108;28;20437;-82
2023/03/26 01:24:51;;;;;;;46.28;7.53;;;;;;;9.23;82.42;98958.53;5035734;28;20067;-83
2023/03/26 01:27:32;;;;;;;16.02;5.25;;;;;;;9.41;81.89;98959.06;5037267;28;20114;-83
2023/03/26 01:30:21;;;;;;;16.65;5.35;;;;;;;9.59;81.14;98954.09;5035652;28;20576;-83
2023/03/26 01:33:12;;;;;;;18.45;4.80;;;;;;;9.50;80.79;98939.44;5036726;28;20033;-82
2023/03/26 01:35:53;;;;;;;17.20;4.18;;;;;;;9.65;80.90;98944.81;5036282;28;20107;-82
2023/03/26 01:38:21;;;;;;;13.43;3.47;;;;;;;9.56;80.54;98949.19;5035929;28;20037;-82
2023/03/26 01:41:10;;;;;;;11.13;3.58;;;;;;;9.42;80.51;98941.63;5036744;28;20103;-83
2023/03/26 01:43:44;;;;;;;14.55;4.38;;;;;;;9.22;81.20;98947.94;5037831;28;20067;-82
2023/03/26 01:46:13;;;;;;;27.00;4.53;;;;;;;9.26;81.95;98937.31;5037391;28;20042;-83
2023/03/26 01:48:41;;;;;;;34.78;7.25;;;;;;;9.29;81.06;98939.50;5034366;28;20033;-83
2023/03/26 01:51:08;;;;;;;11.25;3.95;;;;;;;9.48;81.13;98930.75;5036331;28;20045;-82
2023/03/26 01:53:39;;;;;;;14.52;4.28;;;;;;;9.61;79.89;98929.31;5018257;28;20044;-82
2023/03/26 01:56:28;;;;;;;30.45;8.52;;;;;;;9.62;80.00;98923.56;5018155;28;20316;-83
2023/03/26 01:59:17;;;;;;;18.83;5.32;;;;;;;9.42;79.99;98919.84;5036363;28;20044;-83
2023/03/26 02:02:10;;;;;;;32.20;5.38;;;;;;;9.61;80.45;98921.97;5036830;28;20048;-82
2023/03/26 02:04:59;;;;;;;14.38;3.92;;;;;;;9.56;80.10;98911.09;5036946;28;20044;-82
2023/03/26 02:07:33;;;;;;;21.55;3.97;;;;;;;9.66;80.03;98916.50;5036191;28;20169;-82
2023/03/26 02:10:05;;;;;;;14.77;4.00;;;;;;;9.76;79.71;98904.72;5037884;28;20064;-82
2023/03/26 02:12:31;;;;;;;19.45;4.43;;;;;;;9.61;80.17;98902.91;5036643;28;20047;-83
2023/03/26 02:14:59;;;;;;;19.92;4.05;;;;;;;9.62;79.47;98898.28;5021151;28;20501;-82
2023/03/26 02:17:25;;;;;;;15.00;5.18;;;;;;;9.53;79.97;98900.78;5037238;28;20559;-83
2023/03/26 02:19:50;;;;;;;15.27;4.28;;;;;;;9.58;80.06;98898.00;5037063;28;20037;-83
2023/03/26 02:22:16;;;;;;;15.97;4.73;;;;;;;9.69;79.34;98888.72;5037161;28;20111;-83
2023/03/26 02:24:42;;;;;;;20.92;5.45;;;;;;;9.22;80.66;98891.66;5038206;28;20267;-83
2023/03/26 02:27:08;;;;;;;26.63;5.45;;;;;;;9.42;80.96;98894.56;5037759;28;20055;-83
2023/03/26 02:29:38;;;;;;;25.23;6.22;;;;;;;9.73;79.93;98879.97;5018757;28;20064;-83
2023/03/26 02:32:05;;;;;;;16.77;3.28;;;;;;;9.62;79.85;98880.03;5038214;28;20052;-83
2023/03/26 02:34:30;;;;;;;16.83;5.35;;;;;;;9.80;79.81;98877.78;5037239;28;20044;-83
2023/03/26 02:36:56;;;;;;;20.30;4.43;;;;;;;9.68;79.50;98878.91;5036044;28;20026;-83
2023/03/26 02:39:23;;;;;;;18.73;4.07;;;;;;;9.74;79.05;98865.28;5037169;28;20505;-82
2023/03/26 02:41:48;;;;;;;34.47;6.25;;;;;;;9.67;79.69;98871.84;5037102;28;20060;-83
2023/03/26 02:44:13;;;;;;;13.65;3.92;;;;;;;9.54;80.13;98869.75;5036795;28;20120;-83
2023/03/26 02:46:39;;;;;;;16.23;4.45;;;;;;;9.56;80.19;98873.00;5037476;28;20652;-82
2023/03/26 02:49:04;;;;;;;20.33;5.18;;;;;;;9.72;79.67;98862.03;5036452;28;20033;-83
2023/03/26 02:51:33;;;;;;;21.63;6.60;;;;;;;9.79;79.29;98867.97;5037652;28;20532;-83
2023/03/26 02:54:00;;;;;;;17.63;4.35;;;;;;;9.65;79.71;98859.63;5036789;28;20037;-83
2023/03/26 02:56:25;;;;;;;12.35;3.72;;;;;;;9.54;80.01;98851.50;5037108;28;20032;-82
2023/03/26 02:58:50;;;;;;;14.02;4.00;;;;;;;9.39;80.60;98859.75;5038852;28;20650;-81
2023/03/26 03:01:17;;;;;;;34.72;5.40;;;;;;;9.54;80.48;98861.59;5046971;28;20056;-83
2023/03/26 03:03:42;;;;;;;18.63;4.20;;;;;;;9.52;80.05;98858.34;5036559;28;20500;-83
2023/03/26 03:06:07;;;;;;;19.02;5.80;;;;;;;9.55;80.00;98849.59;5054787;28;20021;-83
2023/03/26 03:08:33;;;;;;;19.52;4.90;;;;;;;9.54;80.11;98845.28;5053893;28;20529;-83
2023/03/26 03:11:06;;;;;;;21.15;5.30;;;;;;;9.67;79.81;98841.91;5053656;28;20086;-83
2023/03/26 03:13:32;;;;;;;12.73;4.15;;;;;;;9.72;79.52;98832.94;5052542;28;20041;-83
2023/03/26 03:15:57;;;;;;;14.00;3.13;;;;;;;9.55;79.37;98822.41;5051010;28;20059;-83
2023/03/26 03:18:22;;;;;;;13.95;4.22;;;;;;;9.76;79.17;98831.22;5051781;28;20253;-83
2023/03/26 03:20:48;;;;;;;16.87;3.83;;;;;;;9.57;78.36;98823.75;5054939;28;20199;-84
2023/03/26 03:23:14;;;;;;;15.95;3.47;;;;;;;9.49;79.30;98809.91;5053513;28;20256;-84
2023/03/26 03:25:40;;;;;;;33.03;6.22;;;;;;;9.49;79.29;98813.47;5052658;28;20032;-83
2023/03/26 03:28:05;;;;;;;17.50;5.07;;;;;;;9.81;78.29;98814.06;5052508;28;20577;-83
2023/03/26 03:30:30;;;;;;;22.23;3.70;;;;;;;9.93;77.88;98800.91;5052723;28;20025;-83
2023/03/26 03:32:57;;;;;;;17.73;3.30;;;;;;;9.85;78.33;98806.13;5051958;28;20032;-83
2023/03/26 03:35:23;;;;;;;19.73;4.50;;;;;;;9.78;77.93;98807.25;5036043;28;20056;-83
2023/03/26 03:37:48;;;;;;;16.15;4.30;;;;;;;9.89;77.91;98805.28;5052973;28;20090;-84
2023/03/26 03:40:13;;;;;;;20.83;4.75;;;;;;;9.80;77.81;98801.56;5053826;28;20037;-83
2023/03/26 03:42:39;;;;;;;17.52;3.15;;;;;;;9.79;78.12;98800.75;5053013;28;20060;-83
2023/03/26 03:45:05;;;;;;;14.30;4.37;;;;;;;9.95;78.02;98807.97;5050808;28;20029;-83
2023/03/26 03:47:30;;;;;;;18.65;3.78;;;;;;;9.88;77.94;98803.69;5053476;28;21060;-83
2023/03/26 03:49:58;;;;;;;12.40;3.03;;;;;;;9.87;77.75;98796.59;5053405;28;20029;-83
2023/03/26 03:52:24;;;;;;;11.35;3.20;;;;;;;10.01;77.31;98790.50;5054318;28;20036;-84
2023/03/26 03:54:50;;;;;;;16.02;3.97;;;;;;;9.96;77.59;98796.00;5057563;28;20036;-83
2023/03/26 03:57:17;;;;;;;12.23;3.40;;;;;;;9.85;77.35;98793.34;5056236;28;20033;-84
2023/03/26 03:59:43;;;;;;;21.05;5.65;;;;;;;9.76;77.88;98787.69;5056296;28;20251;-84
2023/03/26 04:02:09;;;;;;;13.02;3.65;;;;;;;9.93;77.39;98790.03;5057189;28;20127;-82
2023/03/26 04:04:36;;;;;;;19.73;3.78;;;;;;;9.85;77.79;98795.25;5058040;28;20020;-83
2023/03/26 04:07:02;;;;;;;17.65;4.30;;;;;;;9.79;77.83;98786.31;5057158;28;20029;-83
2023/03/26 04:09:27;;;;;;;14.82;3.05;;;;;;;9.72;77.71;98783.09;5053981;28;20866;-84
2023/03/26 04:11:52;;;;;;;9.97;2.83;;;;;;;9.95;77.54;98778.03;5056801;28;20036;-83
2023/03/26 04:14:17;;;;;;;26.20;3.93;;;;;;;10.00;76.84;98775.28;5039660;28;20250;-83
2023/03/26 04:16:43;;;;;;;17.10;4.47;;;;;;;10.09;76.61;98778.19;5055478;28;20266;-83
2023/03/26 04:19:08;;;;;;;21.17;5.13;;;;;;;9.80;77.31;98777.84;5056285;28;20321;-83
2023/03/26 04:21:36;;;;;;;14.70;3.40;;;;;;;9.76;77.49;98762.41;5058041;28;20335;-83
2023/03/26 04:24:02;;;;;;;13.20;3.47;;;;;;;9.91;77.48;98759.53;5055192;28;20281;-84
2023/03/26 04:26:29;;;;;;;12.07;3.42;;;;;;;9.79;77.16;98750.94;5055155;28;20194;-83
2023/03/26 04:28:59;;;;;;;13.13;3.60;;;;;;;9.89;77.01;98745.41;5056736;28;20094;-83
2023/03/26 04:31:29;;;;;;;9.85;2.60;;;;;;;10.04;76.57;98746.38;5056705;28;20127;-83
2023/03/26 04:34:04;;;;;;;28.85;4.55;;;;;;;10.07;76.05;98737.63;5056156;28;20036;-84
2023/03/26 04:36:32;;;;;;;17.90;5.22;;;;;;;10.13;75.35;98741.91;5055946;28;20037;-83
2023/03/26 04:39:01;;;;;;;21.33;3.75;;;;;;;10.16;75.85;98733.19;5056945;28;20045;-83
2023/03/26 04:41:28;;;;;;;10.15;3.40;;;;;;;10.22;75.55;98730.41;5053756;28;20041;-84
2023/03/26 04:43:54;;;;;;;12.20;3.35;;;;;;;10.23;75.16;98721.16;5053982;28;20025;-83
2023/03/26 04:46:22;;;;;;;9.63;3.35;;;;;;;10.22;75.42;98730.41;5037405;28;20391;-83
2023/03/26 04:48:51;;;;;;;8.52;2.45;;;;;;;9.80;76.00;98719.91;5053390;28;20041;-83
2023/03/26 04:51:20;;;;;;;25.35;5.25;;;;;;;9.98;76.00;98720.28;5056108;28;20939;-83
2023/03/26 04:53:56;;;;;;;16.85;3.78;;;;;;;9.97;75.79;98708.56;5054897;28;20029;-83
2023/03/26 04:56:38;;;;;;;16.77;4.30;;;;;;;9.96;75.44;98717.84;5055059;28;20029;-84
2023/03/26 04:59:04;;;;;;;12.48;2.70;;;;;;;9.86;75.80;98707.88;5055677;28;20485;-84
2023/03/26 05:01:29;;;;;;;13.55;3.40;;;;;;;9.93;75.90;98702.91;5056905;28;20132;-83
2023/03/26 05:03:57;;;;;;;21.95;4.40;;;;;;;9.96;75.96;98696.06;5055590;28;20028;-83
2023/03/26 05:06:24;;;;;;;14.65;3.65;;;;;;;9.97;75.52;98697.69;5056959;28;20571;-83
2023/03/26 05:08:50;;;;;;;12.60;2.95;;;;;;;9.93;75.49;98697.44;5055508;28;20048;-84
2023/03/26 05:11:15;;;;;;;18.67;5.10;;;;;;;9.93;75.58;98691.19;5054463;28;20466;-84
2023/03/26 05:13:41;;;;;;;14.10;4.87;;;;;;;9.93;75.21;98702.91;5056131;28;20036;-83
2023/03/26 05:16:09;;;;;;;8.23;2.53;;;;;;;9.95;75.28;98688.16;5056367;28;20340;-83
2023/03/26 05:18:35;;;;;;;13.52;2.53;;;;;;;10.00;75.11;98690.84;5055492;28;20597;-83
2023/03/26 05:21:00;;;;;;;13.57;2.90;;;;;;;9.99;74.81;98683.78;5056633;28;20029;-84
2023/03/26 05:23:26;;;;;;;15.60;3.13;;;;;;;10.07;74.75;98682.34;5055266;28;20029;-82
2023/03/26 05:25:51;;;;;;;10.13;4.80;;;;;;;9.95;75.57;98682.72;5037056;28;20111;-83
2023/03/26 05:28:19;;;;;;;12.95;3.85;;;;;;;10.03;75.15;98674.75;5052406;28;20043;-83
2023/03/26 05:30:45;;;;;;;9.45;2.63;;;;;;;10.12;74.88;98677.66;5054075;28;20039;-83
2023/03/26 05:33:10;;;;;;;11.43;2.47;;;;;;;9.85;75.18;98673.56;5039279;28;20529;-83
2023/03/26 05:35:36;;;;;;;11.13;3.13;;;;;;;9.83;75.80;98669.50;5054936;28;20027;-83
2023/03/26 05:38:01;;;;;;;19.48;3.55;;;;;;;9.85;75.87;98670.84;5054895;28;20536;-83
2023/03/26 05:40:27;;;;;;;11.52;2.88;;;;;;;9.80;75.39;98666.25;5053901;28;20031;-85
2023/03/26 05:42:52;;;;;;;7.13;2.40;;;;;;;9.64;76.74;98662.06;5053778;28;20039;-84
2023/03/26 05:45:17;;;;;;;9.82;3.42;;;;;;;9.81;76.06;98662.44;5053774;28;20478;-83
2023/03/26 05:47:43;;;;;;;13.32;3.78;;;;;;;9.90;76.26;98645.50;5054502;28;20124;-83
2023/03/26 05:50:09;;;;;;;12.82;2.88;;;;;;;9.92;75.93;98646.81;5055509;28;20072;-83
2023/03/26 05:52:35;;;;;;;20.25;3.17;;;;;;;9.99;75.79;98642.94;5053528;28;20033;-84
2023/03/26 05:55:01;;;;;;;9.18;3.15;;;;;;;9.86;76.13;98633.53;5053442;28;20032;-83
2023/03/26 05:57:29;;;;;;;9.98;3.30;;;;;;;9.69;76.88;98627.44;5052902;28;20025;-83
2023/03/26 05:59:55;;;;;;;20.35;3.17;;;;;;;9.72;76.99;98627.97;5055211;28;20505;-84
2023/03/26 06:02:20;;;;;;;10.23;2.58;;;;;;;9.88;76.63;98626.72;5037450;28;20031;-84
2023/03/26 06:04:46;;;;;;;12.25;3.53;;;;;;;10.01;76.29;98621.66;5053734;28;20021;-84
2023/03/26 06:07:11;;;;;;;7.35;2.85;;;;;;;10.00;75.74;98620.88;5053870;28;20036;-83
2023/03/26 06:09:40;;;;;;;8.82;2.83;;;;;;;9.99;76.41;98618.41;5051976;28;20035;-83
2023/03/26 06:12:06;;;;;;;16.05;3.75;;;;;;;10.06;75.77;98612.63;5053146;28;20025;-83
2023/03/26 06:14:32;;;;;;;19.65;4.65;;;;;;;10.03;76.15;98606.66;5052424;28;20071;-83
2023/03/26 06:16:57;;;;;;;10.57;1.90;;;;;;;10.13;76.00;98607.66;5053842;28;20052;-83
2023/03/26 06:19:22;;;;;;;10.40;3.13;;;;;;;9.85;77.02;98602.78;5052519;28;20869;-84
2023/03/26 06:21:48;;;;;;;14.07;3.00;;;;;;;10.00;76.73;98603.72;5053460;28;20322;-86
2023/03/26 06:24:15;;;;;;;15.45;3.45;;;;;;;10.10;76.58;98602.78;5054339;28;20547;-83
2023/03/26 06:26:41;;;;;;;10.10;2.35;;;;;;;10.14;76.43;98601.13;5055129;28;20379;-82
2023/03/26 06:29:06;;;;;;;10.35;2.13;;;;;;;10.14;76.15;98604.66;5054970;28;20029;-83
2023/03/26 06:31:31;;;;;;;8.80;2.80;;;;;;;10.18;76.01;98606.78;5052755;28;20632;-82
2023/03/26 06:33:57;;;;;;;25.80;3.50;;;;;;;10.03;76.41;98597.69;5053920;28;20048;-82
2023/03/26 06:36:22;;;;;;;12.33;2.77;;;;;;;9.78;77.29;98602.31;5054019;28;20318;-82
2023/03/26 06:38:47;;;;;;;13.27;3.92;;;;;;;9.92;77.27;98603.28;5053461;28;20274;-83
2023/03/26 06:41:13;;;;;;;10.43;2.67;;;;;;;9.83;77.50;98596.81;5055875;28;20044;-83
2023/03/26 06:43:38;;;;;;;10.35;2.80;;;;;;;9.91;76.83;98601.63;5054887;28;20294;-83
2023/03/26 06:46:03;;;;;;;17.27;2.72;;;;;;;9.88;77.18;98596.78;5052579;28;20124;-83
2023/03/26 06:48:29;;;;;;;9.43;2.30;;;;;;;9.97;76.84;98593.41;5053288;28;20088;-83
2023/03/26 06:50:54;;;;;;;8.90;3.47;;;;;;;9.93;76.85;98594.00;5053814;28;20086;-84
2023/03/26 06:53:20;;;;;;;12.60;3.78;;;;;;;9.80;77.92;98595.47;5051922;28;20024;-83
2023/03/26 06:55:45;;;;;;;14.82;4.63;;;;;;;9.79;78.16;98598.50;5055271;28;20041;-83
2023/03/26 06:58:11;;;;;;;9.45;2.33;;;;;;;9.99;77.99;98591.19;5055434;28;20115;-83
2023/03/26 07:00:37;;;;;;;10.30;3.20;;;;;;;9.96;77.26;98597.22;5053965;28;20517;-83
2023/03/26 07:03:03;;;;;;;8.68;2.28;;;;;;;10.11;77.75;98594.31;5054586;28;20033;-83
2023/03/26 07:05:29;;;;;;;12.27;2.15;;;;;;;10.00;77.71;98595.56;5053630;28;20089;-82
2023/03/26 07:07:54;;;;;;;10.02;3.17;;;;;;;10.07;77.24;98587.84;5054208;28;20040;-83
2023/03/26 07:10:19;;;;;;;15.47;2.70;;;;;;;10.03;77.80;98584.06;5054934;28;20037;-83
2023/03/26 07:12:45;;;;;;;16.52;3.53;;;;;;;10.01;77.28;98584.38;5053860;28;20272;-83
2023/03/26 07:15:10;;;;;;;15.25;3.58;;;;;;;9.92;78.33;98575.22;5054610;28;20084;-83
2023/03/26 07:17:36;;;;;;;11.57;2.92;;;;;;;9.93;77.97;98574.94;5054019;28;20072;-83
2023/03/26 07:20:02;;;;;;;19.77;5.18;;;;;;;10.11;77.94;98566.31;5052235;28;20044;-82
2023/03/26 07:22:28;;;;;;;9.32;2.75;;;;;;;9.92;78.14;98570.59;5054767;28;20029;-82
2023/03/26 07:24:54;;;;;;;19.08;4.60;;;;;;;10.03;77.70;98567.72;5055034;28;20062;-83
2023/03/26 07:27:45;;;;;;;11.88;4.38;;;;;;;10.11;77.87;98561.66;5057522;28;20041;-84
2023/03/26 07:30:30;;;;;;;11.10;3.08;;;;;;;9.93;78.34;98558.59;5057229;28;20049;-83
2023/03/26 07:33:02;;;;;;;12.05;2.55;;;;;;;10.12;77.91;98555.09;5057654;28;20020;-83
2023/03/26 07:35:45;;;;;;;8.55;3.00;;;;;;;10.02;77.38;98553.31;5055920;28;20043;-84
2023/03/26 07:38:31;;;;;;;8.13;2.83;;;;;;;10.08;78.05;98545.91;5056263;28;20037;-83
2023/03/26 07:41:32;;;;;;;24.83;3.25;;;;;;;10.14;77.69;98547.47;5056969;28;20091;-82
2023/03/26 07:44:24;;;;;;;16.70;3.30;;;;;;;9.92;78.51;98543.38;5056480;28;20048;-82
2023/03/26 07:46:52;;;;;;;17.05;4.50;;;;;;;9.98;78.17;98543.28;5056103;28;20047;-83
2023/03/26 07:49:19;;;;;;;13.55;2.83;;;;;;;9.86;78.78;98539.09;5056700;28;20048;-83
2023/03/26 07:51:45;;;;;;;12.60;4.32;;;;;;;9.96;79.21;98531.88;5058212;28;20474;-85
2023/03/26 07:54:10;;;;;;;10.65;2.75;;;;;;;9.81;79.06;98534.50;5060684;28;20366;-87
2023/03/26 07:56:54;;;;;;;7.63;1.98;;;;;;;9.84;79.61;98535.03;5059721;28;20032;-86
2023/03/26 07:59:33;;;;;;;11.25;2.65;;;;;;;9.93;79.63;98527.81;5056122;28;20052;-84
2023/03/26 08:02:14;;;;;;;17.05;4.28;;;;;;;9.93;79.32;98527.81;5057562;28;20084;-83
2023/03/26 08:04:51;;;;;;;9.55;2.50;;;;;;;9.73;80.92;98518.81;5057399;28;20044;-84
2023/03/26 08:07:38;;;;;;;7.88;2.00;;;;;;;9.80;80.53;98516.53;5058278;28;20537;-82
2023/03/26 08:10:15;;;;;;;10.20;2.08;;;;;;;9.76;80.50;98511.97;5055848;28;20052;-83
2023/03/26 08:13:05;;;;;;;9.75;3.40;;;;;;;9.93;80.51;98520.47;5057418;28;20036;-85
2023/03/26 08:15:44;;;;;;;7.85;2.38;;;;;;;9.89;81.19;98513.16;5055570;28;20518;-84
2023/03/26 08:18:28;;;;;;;10.20;2.83;;;;;;;9.88;81.04;98506.94;5055720;28;20040;-85
2023/03/26 08:21:05;;;;;;;15.95;3.63;;;;;;;9.87;80.82;98510.75;5056581;28;20058;-82
2023/03/26 08:23:59;;;;;;;10.07;2.85;;;;;;;9.56;81.82;98502.94;5056046;28;20478;-83
2023/03/26 08:26:38;;;;;;;6.95;1.80;;;;;;;9.62;82.44;98501.78;5057459;28;20025;-83
2023/03/26 08:29:20;;;;;;;7.80;2.58;;;;;;;9.78;82.42;98504.34;5055754;28;20122;-82
2023/03/26 08:31:47;;;;;;;12.40;4.40;;;;;;;9.80;82.24;98502.91;5054632;28;20037;-82
2023/03/26 08:34:13;;;;;;;13.57;4.25;;;;;;;9.79;82.71;98503.22;5057101;28;20041;-82
2023/03/26 08:36:39;;;;;;;9.93;2.75;;;;;;;9.77;83.10;98500.78;5056725;28;20043;-82
2023/03/26 08:39:05;;;;;;;10.73;2.75;;;;;;;10.00;81.96;98492.09;5056507;28;20105;-84
2023/03/26 08:41:55;;;;;;;8.93;2.60;;;;;;;10.20;81.52;98498.34;5056891;28;20059;-84
2023/03/26 08:44:47;;;;;;;9.55;2.72;;;;;;;10.00;82.41;98500.25;5050575;28;20197;-86
2023/03/26 08:47:45;;;;;;;8.38;2.10;;;;;;;9.95;82.82;98494.84;5053644;28;20064;-83
2023/03/26 08:50:37;;;;;;;6.68;2.60;;;;;;;9.72;84.05;98489.97;5056720;28;20029;-84
2023/03/26 08:53:09;;;;;;;9.68;2.78;;;;;;;9.91;83.85;98492.72;5054611;28;20033;-85
2023/03/26 08:55:48;;;;;;;10.57;2.85;;;;;;;10.08;83.26;98491.44;5056091;28;20052;-84
2023/03/26 08:58:51;;;;;;;6.45;2.20;;;;;;;9.89;84.35;98489.50;5055079;28;20143;-84
2023/03/26 09:02:00;;;;;;;9.38;2.95;;;;;;;10.13;82.83;98490.53;5055448;28;20077;-83
2023/03/26 09:04:34;;;;;;;15.13;4.18;;;;;;;10.26;81.73;98489.00;5027714;28;20231;-84
2023/03/26 09:07:29;;;;;;;8.98;2.88;;;;;;;10.21;82.44;98494.53;5055917;28;20048;-84
2023/03/26 09:10:24;;;;;;;8.85;2.35;;;;;;;10.30;82.03;98492.78;5055425;28;20056;-84
2023/03/26 09:13:14;;;;;;;7.97;1.90;;;;;;;10.45;81.56;98488.22;5053328;28;20116;-84
2023/03/26 09:16:07;;;;;;;9.38;2.92;;;;;;;10.26;81.91;98486.28;5057209;28;20048;-93
2023/03/26 09:18:45;;;;;;;7.78;1.95;;;;;;;10.16;81.75;98485.34;5053090;28;20037;-84
2023/03/26 09:21:31;;;;;;;9.35;1.83;;;;;;;10.00;83.22;98494.81;5056359;28;20025;-82
2023/03/26 09:24:26;;;;;;;8.02;1.75;;;;;;;10.25;82.19;98488.19;5055473;28;20040;-82
2023/03/26 09:26:58;;;;;;;8.70;1.67;;;;;;;10.48;81.05;98482.16;5053894;28;20090;-83
2023/03/26 09:29:29;;;;;;;7.72;2.13;;;;;;;10.09;81.90;98482.16;5049333;28;20029;-83
2023/03/26 09:32:11;;;;;;;8.80;2.33;;;;;;;10.21;82.19;98483.66;5053864;28;20167;-83
2023/03/26 09:35:02;;;;;;;9.02;2.10;;;;;;;10.08;82.59;98491.44;5036548;28;20032;-83
2023/03/26 09:37:32;;;;;;;6.22;2.75;;;;;;;10.02;82.78;98487.16;5056613;28;20044;-83
2023/03/26 09:40:21;;;;;;;6.28;2.35;;;;;;;9.78;83.90;98479.84;5055548;28;20025;-83
2023/03/26 09:43:01;;;;;;;14.43;2.13;;;;;;;10.23;82.76;98482.22;5053419;28;20029;-83
2023/03/26 09:45:51;;;;;;;6.13;1.90;;;;;;;10.38;81.74;98473.03;5054906;28;20021;-83
2023/03/26 09:48:30;;;;;;;7.72;2.35;;;;;;;10.34;82.31;98482.91;5053714;28;20063;-83
2023/03/26 09:51:08;;;;;;;6.57;2.38;;;;;;;10.34;82.17;98474.72;5053601;28;20107;-83
2023/03/26 09:53:56;;;;;;;9.82;2.38;;;;;;;10.48;81.95;98471.25;5053917;28;20672;-83
2023/03/26 09:56:33;;;;;;;5.00;1.98;;;;;;;10.47;81.03;98475.09;5053998;28;20044;-83
2023/03/26 09:59:37;;;;;;;4.00;1.45;;;;;;;10.45;81.46;98469.13;5054841;28;20441;-83
2023/03/26 10:02:52;;;;;;;3.85;0.90;;;;;;;10.21;82.16;98464.59;5053877;28;20130;-83
2023/03/26 10:05:29;;;;;;;;;;;;;;;10.38;82.02;98466.78;5050227;28;20207;-83
2023/03/26 10:08:24;;;;;;;5.93;1.77;;;;;;;10.62;80.68;98472.16;5054439;28;19963;-83
2023/03/26 10:10:55;;;;;;;;;;;;;;;10.53;80.58;98468.50;4968501;28;20089;-83
2023/03/26 10:13:58;;;;;;;6.57;1.55;;;;;;;10.38;81.07;98470.31;5054529;28;19917;-83
2023/03/26 10:16:30;;;;;;;3.60;1.33;;;;;;;10.30;81.69;98460.09;5055302;28;20037;-84
2023/03/26 10:19:20;;;;;;;2.72;0.80;;;;;;;10.30;81.71;98460.09;5053281;28;20064;-83
2023/03/26 10:21:56;;;;;;;6.20;1.38;;;;;;;10.47;81.33;98458.75;5054233;28;20579;-83
2023/03/26 10:24:58;;;;;;;7.55;1.95;;;;;;;10.62;80.75;98450.34;5054756;28;20064;-83
2023/03/26 10:27:50;;;;;;;5.78;2.15;;;;;;;10.69;80.60;98450.00;5053563;28;20076;-83
2023/03/26 10:30:36;;;;;;;6.07;2.05;;;;;;;10.52;81.73;98455.97;5053842;28;20545;-83
2023/03/26 10:33:21;;;;;;;3.88;1.27;;;;;;;10.56;81.13;98457.00;5054419;28;20021;-83
2023/03/26 10:36:08;;;;;;;6.60;2.22;;;;;;;10.58;80.45;98445.78;5055152;28;20028;-83
2023/03/26 10:38:53;;;;;;;9.68;4.13;;;;;;;10.53;81.04;98463.06;5053048;28;20033;-83
2023/03/26 10:41:37;;;;;;;4.85;1.88;;;;;;;10.38;78.41;98456.69;5052074;28;20029;-83
2023/03/26 10:44:31;;;;;;;2.25;1.00;;;;;;;9.64;79.15;98450.59;5053203;28;20036;-83
2023/03/26 10:47:09;;;;;;;4.45;2.75;;;;;;;9.60;80.23;98454.19;5055114;28;20037;-83
2023/03/26 10:49:39;;;;;;;5.38;2.25;;;;;;;9.65;78.73;98454.94;5034481;28;20037;-83
2023/03/26 10:52:15;;;;;;;2.75;1.67;;;;;;;9.67;78.63;98446.47;5053219;28;20032;-83
2023/03/26 10:54:54;;;;;;;3.92;2.22;;;;;;;9.44;79.75;98457.91;5050144;28;20032;-83
2023/03/26 10:57:37;;;;;;;1.80;0.82;;;;;;;9.13;80.27;98452.81;5053869;28;20069;-83
2023/03/26 11:00:27;;;;;;;2.63;1.30;;;;;;;9.33;80.68;98456.41;5050863;28;20037;-82
2023/03/26 11:03:31;;;;;;;4.13;1.25;;;;;;;9.43;80.57;98444.59;5036282;28;20035;-83
2023/03/26 11:06:04;;;;;;;2.90;1.52;;;;;;;9.61;79.34;98448.47;5053173;28;20033;-83
2023/03/26 11:08:42;;;;;;;4.68;1.08;;;;;;;9.46;79.39;98442.09;5052085;28;20028;-83
2023/03/26 11:11:35;;;;;;;3.67;1.35;;;;;;;9.54;80.07;98448.00;5055290;28;20028;-83
2023/03/26 11:14:10;;;;;;;12.05;4.07;;;;;;;9.72;79.30;98442.91;5054814;28;20104;-83
2023/03/26 11:16:35;;;;;;;7.60;4.70;;;;;;;9.45;80.81;98448.66;5053608;28;20032;-83
2023/03/26 11:19:09;;;;;;;7.20;2.63;;;;;;;9.43;81.67;98434.53;5051992;28;20505;-83
2023/03/26 11:22:16;;;;;;;8.43;5.30;;;;;;;9.62;81.39;98447.34;5053491;28;20037;-83
2023/03/26 11:24:52;;;;;;;2.55;1.33;;;;;;;9.80;79.51;98439.53;5054159;28;20033;-83
2023/03/26 11:27:45;;;;;;;1.95;0.80;;;;;;;9.75;80.17;98440.41;5054349;28;20520;-83
2023/03/26 11:30:26;;;;;;;1.67;0.50;;;;;;;9.55;80.80;98442.28;5055045;28;20497;-83
2023/03/26 11:32:55;;;;;;;2.95;0.70;;;;;;;9.75;80.20;98439.56;5052790;28;20546;-83
2023/03/26 11:35:31;;;;;;;2.55;0.68;;;;;;;9.31;81.55;98434.94;5053405;28;20036;-83
2023/03/26 11:38:02;;;;;;;2.70;1.23;;;;;;;9.46;81.08;98435.84;5050871;28;20061;-83
2023/03/26 11:40:40;;;;;;;3.20;1.88;;;;;;;9.60;80.46;98430.50;5052021;28;20032;-83
2023/03/26 11:43:08;;;;;;;1.88;0.70;;;;;;;9.20;81.75;98431.50;5052591;28;20040;-83
2023/03/26 11:45:36;;;;;;;4.72;1.27;;;;;;;9.32;81.49;98439.25;5061711;28;20184;-83
2023/03/26 11:48:14;;;;;;;2.00;0.88;;;;;;;9.50;79.94;98428.72;5052294;28;20033;-83
2023/03/26 11:50:50;;;;;;;2.45;0.82;;;;;;;9.36;80.40;98422.38;5054884;28;20043;-83
2023/03/26 11:53:18;;;;;;;1.75;0.40;;;;;;;9.69;78.95;98430.69;5051844;28;20029;-83
2023/03/26 11:55:56;;;;;;;0.93;0.30;;;;;;;9.72;78.38;98426.56;5052115;28;20025;-83
2023/03/26 11:58:33;;;;;;;0.73;0.30;;;;;;;9.41;79.35;98431.28;5054811;28;20556;-83
2023/03/26 12:01:11;;;;;;;2.83;0.60;;;;;;;9.65;80.40;98424.19;5052302;28;20099;-83